Time;durP1;ratioP1;P1;durP2;ratioP2;P2;SDS_P1;SDS_P2;PMS_P1;PMS_P2;Temp;Humidity;BMP_temperature;BMP_pressure;BME280_temperature;BME280_humidity;BME280_pressure;Samples;Min_cycle;Max_cycle;Signal;HPM_P1;HPM_P2
2024/01/03 04:29:58;;;;;;;;;;;;;;;2.55;52.29;100180.02;106115;1256;61378;-78
2024/01/03 04:32:38;;;;;;;;;;;;;;;2.58;52.72;100179.16;106034;1257;73885;-78
2024/01/03 04:35:18;;;;;;;;;;;;;;;2.67;52.79;100181.48;106110;1256;68353;-79
2024/01/03 04:37:53;;;;;;;;;;;;;;;2.68;52.69;100181.08;106108;1253;71459;-79
2024/01/03 04:40:27;;;;;;;;;;;;;;;2.79;52.50;100178.89;106509;1253;61232;-79
2024/01/03 04:43:07;;;;;;;;;;;;;;;2.85;52.22;100178.45;105938;1257;63595;-78
2024/01/03 04:45:47;;;;;;;;;;;;;;;2.82;52.35;100172.77;106154;1253;74841;-79
2024/01/03 04:48:21;;;;;;;;;;;;;;;2.83;52.48;100164.52;106196;1251;67377;-78
2024/01/03 04:50:55;;;;;;;;;;;;;;;2.90;52.31;100161.38;105934;1253;72628;-79
2024/01/03 04:53:29;;;;;;;;;;;;;;;2.94;52.32;100163.01;106318;1256;61100;-79
2024/01/03 04:56:10;;;;;;;;;;;;;;;2.78;52.25;100163.38;106033;1257;61176;-78
2024/01/03 04:58:44;;;;;;;;;;;;;;;2.73;52.40;100159.70;106472;1254;73368;-79
2024/01/03 05:01:12;;;;;;;;;;;;;;;2.62;52.63;100156.77;106048;1253;68455;-80
2024/01/03 05:03:46;;;;;;;;;;;;;;;2.62;52.69;100158.59;105996;1254;71428;-79
2024/01/03 05:06:20;;;;;;;;;;;;;;;2.64;52.77;100161.48;105921;1254;61234;-79
2024/01/03 05:08:55;;;;;;;;;;;;;;;2.62;52.82;100160.14;106092;1253;61305;-77
2024/01/03 05:11:29;;;;;;;;;;;;;;;2.67;52.86;100164.42;106481;1254;74675;-78
2024/01/03 05:14:02;;;;;;;;;;;;;;;2.66;52.91;100162.39;106067;1257;67365;-77
2024/01/03 05:16:36;;;;;;;;;;;;;;;2.67;52.97;100167.02;106023;1254;71445;-77
2024/01/03 05:19:10;;;;;;;;;;;;;;;2.59;53.29;100168.98;105995;1259;61275;-77
2024/01/03 05:21:44;;;;;;;;;;;;;;;2.57;53.59;100174.70;105958;1254;61134;-78
2024/01/03 05:24:19;;;;;;;;;;;;;;;2.67;53.56;100173.71;105959;1253;74626;-79
2024/01/03 05:26:59;;;;;;;;;;;;;;;2.98;52.72;100176.34;106133;1254;68422;-78
2024/01/03 05:29:39;;;;;;;;;;;;;;;3.17;52.58;100169.86;105931;1254;72740;-78
2024/01/03 05:32:19;;;;;;;;;;;;;;;3.30;52.31;100165.81;106646;1252;61929;-78
2024/01/03 05:35:00;;;;;;;;;;;;;;;3.34;52.14;100158.45;106065;1253;61279;-77
2024/01/03 05:37:33;;;;;;;;;;;;;;;3.32;52.46;100156.41;106023;1254;76236;-79
2024/01/03 05:40:07;;;;;;;;;;;;;;;3.40;52.50;100158.79;105978;1259;68331;-78
2024/01/03 05:42:48;;;;;;;;;;;;;;;3.40;52.38;100163.52;105972;1257;72512;-78
2024/01/03 05:45:28;;;;;;;;;;;;;;;3.37;52.57;100159.52;106189;1254;61278;-77
2024/01/03 05:48:08;;;;;;;;;;;;;;;3.36;52.45;100159.79;106626;1254;61349;-78
2024/01/03 05:50:36;;;;;;;;;;;;;;;3.36;52.73;100160.43;105968;1259;75057;-78
2024/01/03 05:53:10;;;;;;;;;;;;;;;3.44;52.63;100163.50;106280;1254;69142;-79
2024/01/03 05:55:44;;;;;;;;;;;;;;;3.56;52.32;100162.66;106244;1255;75084;-79
2024/01/03 05:58:11;;;;;;;;;;;;;;;3.69;51.92;100158.10;105967;1254;62019;-79
2024/01/03 06:00:45;;;;;;;;;;;;;;;3.85;51.69;100154.67;105986;1257;61633;-78
2024/01/03 06:03:19;;;;;;;;;;;;;;;3.97;51.31;100159.61;106488;1257;74679;-78
2024/01/03 06:05:52;;;;;;;;;;;;;;;3.95;51.45;100159.79;105924;1260;68576;-79
2024/01/03 06:08:26;;;;;;;;;;;;;;;3.87;51.77;100160.01;106194;1251;71064;-78
2024/01/03 06:11:01;;;;;;;;;;;;;;;3.62;52.16;100168.61;105914;1253;61647;-78
2024/01/03 06:13:34;;;;;;;;;;;;;;;3.54;52.49;100171.85;106174;1254;61741;-79
2024/01/03 06:16:08;;;;;;;;;;;;;;;3.68;52.82;100168.20;105872;1255;73522;-79
2024/01/03 06:18:36;;;;;;;;;;;;;;;3.80;52.61;100166.15;107458;1251;67278;-79
2024/01/03 06:21:15;;;;;;;;;;;;;;;3.76;52.94;100166.19;106088;1256;72701;-78
2024/01/03 06:23:49;;;;;;;;;;;;;;;3.90;52.73;100164.09;106074;1253;61249;-79
2024/01/03 06:26:26;;;;;;;;;;;;;;;4.18;52.40;100161.42;106011;1253;61247;-78
2024/01/03 06:28:54;;;;;;;;;;;;;;;4.31;52.16;100162.95;105974;1253;73387;-78
2024/01/03 06:31:28;;;;;;;;;;;;;;;4.39;51.87;100159.88;106062;1251;68394;-79
2024/01/03 06:34:02;;;;;;;;;;;;;;;4.22;52.26;100155.05;106479;1253;72675;-79
2024/01/03 06:36:43;;;;;;;;;;;;;;;4.19;52.68;100148.75;105876;1259;61111;-78
2024/01/03 06:39:11;;;;;;;;;;;;;;;4.29;52.74;100139.81;106095;1253;61296;-78
2024/01/03 06:41:44;;;;;;;;;;;;;;;4.45;52.17;100144.79;106168;1253;73783;-79
2024/01/03 06:44:18;;;;;;;;;;;;;;;4.37;52.34;100144.77;105966;1256;67174;-78
2024/01/03 06:46:52;;;;;;;;;;;;;;;4.46;51.91;100150.33;106012;1254;71482;-80
2024/01/03 06:49:21;;;;;;;;;;;;;;;4.44;52.25;100149.48;105948;1257;61793;-78
2024/01/03 06:51:56;;;;;;;;;;;;;;;4.46;52.03;100151.08;106433;1256;61315;-78
2024/01/03 06:54:36;;;;;;;;;;;;;;;4.53;51.98;100148.04;105982;1253;73494;-79
2024/01/03 06:57:09;;;;;;;;;;;;;;;4.68;51.54;100144.16;106080;1256;67745;-80
2024/01/03 06:59:43;;;;;;;;;;;;;;;4.82;51.42;100140.64;105898;1256;71356;-80
2024/01/03 07:02:23;;;;;;;;;;;;;;;4.90;51.63;100143.56;106260;1257;61257;-80
2024/01/03 07:05:03;;;;;;;;;;;;;;;4.99;51.49;100139.62;106135;1253;61470;-80
2024/01/03 07:07:37;;;;;;;;;;;;;;;5.07;51.18;100141.84;106006;1253;73378;-80
2024/01/03 07:10:11;;;;;;;;;;;;;;;5.17;51.08;100145.67;106116;1253;67303;-80
2024/01/03 07:12:52;;;;;;;;;;;;;;;5.15;51.13;100145.91;105997;1251;71095;-78
2024/01/03 07:15:32;;;;;;;;;;;;;;;5.23;50.79;100139.02;106145;1256;61317;-78
2024/01/03 07:18:01;;;;;;;;;;;;;;;5.32;50.53;100133.23;105997;1254;61218;-78
2024/01/03 07:20:36;;;;;;;;;;;;;;;5.46;50.11;100130.30;106439;1253;73352;-79
2024/01/03 07:23:10;;;;;;;;;;;;;;;5.45;50.48;100124.55;106068;1254;68879;-78
2024/01/03 07:25:45;;;;;;;;;;;;;;;5.38;50.64;100114.61;106016;1258;73580;-78
2024/01/03 07:28:14;;;;;;;;;;;;;;;5.40;50.46;100111.97;106021;1253;61350;-78
2024/01/03 07:30:44;;;;;;;;;;;;;;;5.46;50.39;100104.50;105919;1257;61384;-78
2024/01/03 07:33:12;;;;;;;;;;;;;;;5.45;50.58;100097.34;106126;1253;74678;-78
2024/01/03 07:35:43;;;;;;;;;;;;;;;5.47;50.42;100101.64;106023;1256;68414;-80
2024/01/03 07:38:11;;;;;;;;;;;;;;;5.47;50.34;100103.05;105858;1258;72699;-78
2024/01/03 07:40:39;;;;;;;;;;;;;;;5.57;50.23;100093.95;106080;1257;61320;-78
2024/01/03 07:43:09;;;;;;;;;;;;;;;5.62;50.35;100091.29;105850;1258;61264;-80
2024/01/03 07:45:41;;;;;;;;;;;;;;;5.67;50.16;100095.89;106533;1251;73439;-80
2024/01/03 07:48:19;;;;;;;;;;;;;;;5.65;50.17;100085.56;106033;1253;67414;-80
2024/01/03 07:50:53;;;;;;;;;;;;;;;5.67;50.10;100083.33;106086;1253;72646;-80
2024/01/03 07:53:21;;;;;;;;;;;;;;;5.77;50.13;100079.17;105831;1253;61283;-78
2024/01/03 07:55:50;;;;;;;;;;;;;;;5.85;50.31;100077.69;106361;1254;61208;-80
2024/01/03 07:58:27;;;;;;;;;;;;;;;5.93;49.90;100080.31;105805;1254;74695;-78
2024/01/03 08:01:01;;;;;;;;;;;;;;;5.92;49.87;100083.95;105806;1254;68539;-81
2024/01/03 08:03:29;;;;;;;;;;;;;;;5.95;49.57;100084.63;106232;1253;72440;-80
2024/01/03 08:06:03;;;;;;;;;;;;;;;5.92;49.63;100086.93;108301;1251;61303;-80
2024/01/03 08:08:39;;;;;;;;;;;;;;;6.03;49.52;100089.48;105984;1251;61399;-78
2024/01/03 08:11:12;;;;;;;;;;;;;;;6.01;49.78;100088.66;105899;1253;72861;-79
2024/01/03 08:13:46;;;;;;;;;;;;;;;6.01;49.76;100081.23;105966;1257;68412;-79
2024/01/03 08:16:20;;;;;;;;;;;;;;;6.02;49.67;100081.66;106026;1253;71834;-79
2024/01/03 08:18:54;;;;;;;;;;;;;;;6.09;49.33;100079.98;105592;1255;537295;-80
2024/01/03 08:21:29;;;;;;;;;;;;;;;6.06;49.28;100080.06;105903;1258;61140;-78
2024/01/03 08:24:03;;;;;;;;;;;;;;;6.04;49.35;100076.48;106195;1257;76502;-80
2024/01/03 08:26:37;;;;;;;;;;;;;;;6.05;49.39;100072.30;105910;1254;69022;-78
2024/01/03 08:29:12;;;;;;;;;;;;;;;6.12;49.08;100070.66;106012;1253;72678;-79
2024/01/03 08:31:49;;;;;;;;;;;;;;;6.18;49.39;100062.58;106746;1257;61303;-79
2024/01/03 08:34:23;;;;;;;;;;;;;;;6.25;49.12;100051.61;106087;1258;61148;-80
2024/01/03 08:36:57;;;;;;;;;;;;;;;6.32;49.00;100047.23;106091;1253;73442;-78
2024/01/03 08:39:32;;;;;;;;;;;;;;;6.46;48.71;100044.60;105911;1253;67646;-78
2024/01/03 08:42:00;;;;;;;;;;;;;;;6.51;48.52;100039.32;105931;1253;72772;-80
2024/01/03 08:44:28;;;;;;;;;;;;;;;6.57;48.57;100038.86;106105;1257;61425;-80
2024/01/03 08:46:56;;;;;;;;;;;;;;;6.74;47.84;100029.39;105807;1253;61265;-79
2024/01/03 08:49:24;;;;;;;;;;;;;;;6.76;47.62;100025.71;105928;1255;73169;-80
2024/01/03 08:51:58;;;;;;;;;;;;;;;6.70;47.45;100017.05;105888;1256;68825;-80
2024/01/03 08:54:39;;;;;;;;;;;;;;;6.62;47.98;100014.24;106205;1253;72696;-78
2024/01/03 08:57:09;;;;;;;;;;;;;;;6.60;48.24;100009.45;107155;1257;60898;-80
2024/01/03 08:59:43;;;;;;;;;;;;;;;6.58;48.15;100006.66;105869;1253;61918;-78
2024/01/03 09:02:16;;;;;;;;;;;;;;;6.60;48.41;99999.40;106043;1258;74619;-78
2024/01/03 09:04:53;;;;;;;;;;;;;;;6.52;48.21;99999.70;105987;1258;69437;-79
2024/01/03 09:07:21;;;;;;;;;;;;;;;6.54;48.30;99994.04;106066;1253;72978;-80
2024/01/03 09:09:55;;;;;;;;;;;;;;;6.51;48.68;99986.70;105934;1257;62576;-80
2024/01/03 09:12:35;;;;;;;;;;;;;;;6.60;48.43;99984.30;105910;1253;61289;-80
2024/01/03 09:15:09;;;;;;;;;;;;;;;6.65;48.40;99978.53;105976;1253;74808;-80
2024/01/03 09:17:50;;;;;;;;;;;;;;;6.71;48.26;99977.29;107226;1253;67272;-79
2024/01/03 09:20:30;;;;;;;;;;;;;;;6.74;48.22;99973.84;106006;1253;74745;-79
2024/01/03 09:23:11;;;;;;;;;;;;;;;6.73;48.55;99975.08;106181;1253;61389;-79
2024/01/03 09:25:46;;;;;;;;;;;;;;;6.90;48.32;99976.73;105838;1253;61402;-79
2024/01/03 09:28:20;;;;;;;;;;;;;;;7.01;47.83;99967.95;105813;1253;74720;-79
2024/01/03 09:31:00;;;;;;;;;;;;;;;7.16;47.71;99964.13;106032;1253;68805;-80
2024/01/03 09:33:34;;;;;;;;;;;;;;;7.26;47.27;99961.98;105997;1257;74110;-79
2024/01/03 09:36:08;;;;;;;;;;;;;;;7.32;47.23;99955.52;106113;1253;61212;-78
2024/01/03 09:38:48;;;;;;;;;;;;;;;7.79;46.60;99952.60;105988;1256;61239;-78
2024/01/03 09:41:26;;;;;;;;;;;;;;;7.62;46.70;99947.45;106037;1253;73418;-79
2024/01/03 09:44:01;;;;;;;;;;;;;;;7.51;47.03;99940.47;105917;1253;71642;-78
2024/01/03 09:46:38;;;;;;;;;;;;;;;7.46;46.97;99937.98;105945;1256;74842;-78
2024/01/03 09:49:18;;;;;;;;;;;;;;;7.57;46.86;99934.00;105927;1257;61343;-78
2024/01/03 09:52:00;;;;;;;;;;;;;;;7.60;46.84;99917.53;106821;1253;61303;-78
2024/01/03 09:54:34;;;;;;;;;;;;;;;7.61;47.05;99912.73;106325;1257;73436;-78
2024/01/03 09:57:02;;;;;;;;;;;;;;;7.78;46.85;99905.59;105924;1253;68447;-79
2024/01/03 09:59:36;;;;;;;;;;;;;;;7.90;46.69;99896.06;105926;1257;73833;-78
2024/01/03 10:02:12;;;;;;;;;;;;;;;7.96;46.56;99886.63;106159;1258;61430;-80
2024/01/03 10:04:46;;;;;;;;;;;;;;;8.00;46.82;99880.31;106028;1253;61324;-79
2024/01/03 10:07:20;;;;;;;;;;;;;;;7.96;47.02;99877.01;105885;1253;73103;-78
2024/01/03 10:09:55;;;;;;;;;;;;;;;7.94;47.04;99873.86;107027;1253;68897;-78
2024/01/03 10:12:36;;;;;;;;;;;;;;;7.92;47.03;99868.03;105847;1257;72633;-78
2024/01/03 10:15:21;;;;;;;;;;;;;;;7.93;47.03;99860.09;105949;1253;61284;-78
2024/01/03 10:17:55;;;;;;;;;;;;;;;8.06;47.11;99854.19;105915;1256;61787;-80
2024/01/03 10:20:34;;;;;;;;;;;;;;;8.06;47.16;99849.10;106190;1253;74766;-80
2024/01/03 10:23:10;;;;;;;;;;;;;;;8.05;47.04;99842.15;106031;1257;67131;-80
2024/01/03 10:25:48;;;;;;;;;;;;;;;8.17;46.89;99837.27;106117;1253;74710;-80
2024/01/03 10:28:28;;;;;;;;;;;;;;;8.04;47.11;99828.77;105915;1255;61328;-79
2024/01/03 10:31:07;;;;;;;;;;;;;;;8.07;47.03;99820.81;106763;1253;61468;-79
2024/01/03 10:33:41;;;;;;;;;;;;;;;8.15;46.96;99809.29;105890;1253;75609;-78
2024/01/03 10:36:35;;;;;;;;;;;;;;;7.42;48.19;99807.17;105996;1257;72577;-79
2024/01/03 10:39:15;;;;;;;;;;;;;;;7.17;48.99;99801.81;105939;1253;72763;-79
2024/01/03 10:41:50;;;;;;;;;;;;;;;6.99;49.50;99799.10;106138;1252;61231;-77
2024/01/03 10:44:24;;;;;;;;;;;;;;;6.95;49.96;99790.45;105929;1253;61270;-79
2024/01/03 10:46:58;;;;;;;;;;;;;;;6.96;50.15;99785.24;105953;1251;75764;-78
2024/01/03 10:49:33;;;;;;;;;;;;;;;7.09;50.28;99784.48;106066;1253;68494;-80
2024/01/03 10:52:08;;;;;;;;;;;;;;;6.98;50.41;99779.43;106075;1256;72113;-81
2024/01/03 10:54:42;;;;;;;;;;;;;;;6.97;50.87;99770.52;106229;1251;61215;-80
2024/01/03 10:57:16;;;;;;;;;;;;;;;6.96;51.09;99766.45;106089;1253;61282;-79
2024/01/03 10:59:56;;;;;;;;;;;;;;;6.96;51.23;99763.34;106990;1253;74603;-80
2024/01/03 11:02:32;;;;;;;;;;;;;;;6.84;51.73;99759.42;106153;1254;69071;-79
2024/01/03 11:05:26;;;;;;;;;;;;;;;6.90;51.63;99756.50;106056;1254;75632;-79
2024/01/03 11:08:02;;;;;;;;;;;;;;;6.83;51.94;99748.45;106129;1255;62244;-81
2024/01/03 11:11:14;;;;;;;;;;;;;;;6.46;52.93;99749.68;106083;1251;60146;-80
2024/01/03 11:13:55;;;;;;;;;;;;;;;6.39;53.49;99743.20;106112;1251;76026;-80
2024/01/03 11:16:45;;;;;;;;;;;;;;;6.34;54.34;99737.02;106188;1255;69888;-79
2024/01/03 11:19:32;;;;;;;;;;;;;;;6.43;54.50;99734.76;106068;1256;72713;-79
2024/01/03 11:22:07;;;;;;;;;;;;;;;6.29;55.38;99738.31;105880;1253;61421;-79
2024/01/03 11:24:47;;;;;;;;;;;;;;;6.30;55.68;99732.94;106061;1257;61305;-79
2024/01/03 11:27:28;;;;;;;;;;;;;;;6.39;55.38;99725.61;106219;1253;74627;-78
2024/01/03 11:30:08;;;;;;;;;;;;;;;6.41;55.47;99718.84;106611;1256;67559;-77
2024/01/03 11:32:47;;;;;;;;;;;;;;;6.43;55.74;99719.55;106328;1253;72895;-77
2024/01/03 11:35:37;;;;;;;;;;;;;;;6.52;55.91;99712.94;106081;1254;61359;-78
2024/01/03 11:38:17;;;;;;;;;;;;;;;6.66;55.61;99708.27;106052;1256;61189;-78
2024/01/03 11:40:57;;;;;;;;;;;;;;;6.59;55.30;99702.20;105822;1258;74699;-78
2024/01/03 11:43:38;;;;;;;;;;;;;;;6.62;55.47;99700.23;106173;1256;70232;-78
2024/01/03 11:46:18;;;;;;;;;;;;;;;6.58;55.75;99696.22;106051;1257;73523;-78
2024/01/03 11:48:59;;;;;;;;;;;;;;;6.57;55.87;99696.21;105944;1253;61328;-79
2024/01/03 11:51:39;;;;;;;;;;;;;;;6.63;55.88;99691.77;105996;1253;61896;-78
2024/01/03 11:54:19;;;;;;;;;;;;;;;6.62;56.04;99684.39;105838;1253;76196;-80
2024/01/03 11:56:59;;;;;;;;;;;;;;;6.58;56.17;99675.59;106361;1253;68441;-78
2024/01/03 11:59:41;;;;;;;;;;;;;;;6.50;56.75;99671.08;106070;1260;74129;-78
2024/01/03 12:02:21;;;;;;;;;;;;;;;6.44;57.21;99667.78;106046;1258;61337;-80
2024/01/03 12:05:10;;;;;;;;;;;;;;;6.46;57.90;99661.80;106090;1257;61157;-80
2024/01/03 12:07:50;;;;;;;;;;;;;;;6.51;58.11;99654.35;106012;1253;77630;-80
2024/01/03 12:10:25;;;;;;;;;;;;;;;6.08;59.78;99655.20;106033;1259;70618;-80
2024/01/03 12:13:07;;;;;;;;;;;;;;;6.10;60.63;99652.60;106268;1257;70390;-80
2024/01/03 12:15:42;;;;;;;;;;;;;;;6.24;60.06;99654.56;106383;1253;61244;-78
2024/01/03 12:18:26;;;;;;;;;;;;;;;6.21;60.45;99651.96;105915;1258;61165;-78
2024/01/03 12:21:10;;;;;;;;;;;;;;;6.17;60.45;99651.69;106113;1253;76965;-79
2024/01/03 12:23:45;;;;;;;;;;;;;;;6.11;61.26;99647.45;106415;1253;71210;-80
2024/01/03 12:26:20;;;;;;;;;;;;;;;6.07;62.78;99641.09;106290;1257;73708;-80
